createdAt,value
2023-01-13T00:00:34.922Z,100515.82
2023-01-13T00:01:37.925Z,100522.66
2023-01-13T00:02:40.190Z,100514.33
2023-01-13T00:03:43.409Z,100516.99
2023-01-13T00:04:46.520Z,100521.05
2023-01-13T00:05:48.810Z,100527.20
2023-01-13T00:06:52.104Z,100519.80
2023-01-13T00:07:54.418Z,100517.02
2023-01-13T00:08:57.286Z,100523.02
2023-01-13T00:10:00.605Z,100522.31
2023-01-13T00:11:02.911Z,100519.01
2023-01-13T00:12:06.547Z,100524.23
2023-01-13T00:13:09.017Z,100524.20
2023-01-13T00:14:11.226Z,100527.34
2023-01-13T00:15:14.498Z,100523.07
2023-01-13T00:16:18.483Z,100526.38
2023-01-13T00:17:22.534Z,100519.77
2023-01-13T00:18:25.335Z,100529.06
2023-01-13T00:19:27.939Z,100528.75
2023-01-13T00:20:30.084Z,100528.75
2023-01-13T00:21:32.213Z,100521.91
2023-01-13T00:22:35.531Z,100520.09
2023-01-13T00:23:39.133Z,100524.33
2023-01-13T00:24:41.570Z,100527.84
2023-01-13T00:25:44.861Z,100527.05
2023-01-13T00:26:47.799Z,100528.78
2023-01-13T00:27:50.040Z,100536.47
2023-01-13T00:28:58.385Z,100535.86
2023-01-13T00:30:01.028Z,100527.28
2023-01-13T00:31:09.670Z,100530.65
2023-01-13T00:32:11.898Z,100533.16
2023-01-13T00:33:14.445Z,100525.59
2023-01-13T00:34:17.888Z,100521.05
2023-01-13T00:35:20.089Z,100527.14
2023-01-13T00:36:22.547Z,100522.98
2023-01-13T00:37:26.667Z,100523.83
2023-01-13T00:38:31.477Z,100523.05
2023-01-13T00:39:33.846Z,100516.17
2023-01-13T00:40:37.322Z,100520.38
2023-01-13T00:41:57.759Z,100526.34
2023-01-13T00:43:18.835Z,100526.34
2023-01-13T00:44:20.935Z,100528.10
2023-01-13T00:45:23.795Z,100518.84
2023-01-13T00:46:26.137Z,100525.67
2023-01-13T00:47:28.274Z,100529.16
2023-01-13T00:48:32.168Z,100519.85
2023-01-13T00:49:34.311Z,100512.16
2023-01-13T00:50:36.884Z,100516.69
2023-01-13T00:51:39.144Z,100503.85
2023-01-13T00:52:42.377Z,100513.23
2023-01-13T00:53:47.656Z,100509.50
2023-01-13T00:54:50.066Z,100510.53
2023-01-13T00:57:12.612Z,100507.36
2023-01-13T00:58:14.856Z,100515.53
2023-01-13T00:59:17.298Z,100517.25
2023-01-13T01:00:20.780Z,100506.98
2023-01-13T01:01:25.383Z,100508.13
2023-01-13T01:02:27.772Z,100514.99
2023-01-13T01:03:30.490Z,100518.55
2023-01-13T01:04:33.475Z,100510.17
2023-01-13T01:05:35.608Z,100509.91
2023-01-13T01:06:38.287Z,100513.35
2023-01-13T01:07:40.470Z,100508.52
2023-01-13T01:08:43.824Z,100507.58
2023-01-13T01:09:45.956Z,100512.45
2023-01-13T01:10:48.517Z,100504.78
2023-01-13T01:11:50.607Z,100503.91
2023-01-13T01:12:53.781Z,100503.28
2023-01-13T01:13:58.764Z,100507.58
2023-01-13T01:15:01.793Z,100502.63
2023-01-13T01:16:06.908Z,100503.31
2023-01-13T01:17:09.235Z,100503.99
2023-01-13T01:18:11.894Z,100501.42
2023-01-13T01:19:14.245Z,100497.31
2023-01-13T01:20:16.874Z,100502.48
2023-01-13T01:21:21.134Z,100501.42
2023-01-13T01:22:23.203Z,100495.53
2023-01-13T01:23:25.252Z,100493.73
2023-01-13T01:24:27.422Z,100488.72
2023-01-13T01:25:29.836Z,100494.55
2023-01-13T01:26:32.794Z,100491.95
2023-01-13T01:27:35.073Z,100491.95
2023-01-13T01:28:39.757Z,100496.25
2023-01-13T01:29:41.941Z,100486.72
2023-01-13T01:30:44.278Z,100483.27
2023-01-13T01:31:46.748Z,100491.70
2023-01-13T01:32:49.075Z,100484.99
2023-01-13T01:33:52.937Z,100486.16
2023-01-13T01:34:55.154Z,100492.86
2023-01-13T01:35:57.287Z,100486.64
2023-01-13T01:37:00.056Z,100476.52
2023-01-13T01:38:02.302Z,100476.52
2023-01-13T01:39:04.928Z,100481.77
2023-01-13T01:40:09.269Z,100477.50
2023-01-13T01:41:17.921Z,100485.08
2023-01-13T01:42:41.088Z,100490.17
2023-01-13T01:44:03.011Z,100483.47
2023-01-13T01:45:21.082Z,100490.17
2023-01-13T01:46:24.463Z,100485.27
2023-01-13T01:47:29.631Z,100480.19
2023-01-13T01:48:38.163Z,100480.05
2023-01-13T01:49:42.198Z,100478.13
2023-01-13T01:50:44.893Z,100476.27
2023-01-13T01:51:53.848Z,100474.73
2023-01-13T01:52:59.698Z,100471.43
2023-01-13T01:54:04.611Z,100467.27
2023-01-13T01:55:16.758Z,100472.05
2023-01-13T01:56:20.559Z,100463.57
2023-01-13T01:57:32.371Z,100469.73
2023-01-13T01:58:41.816Z,100466.23
2023-01-13T01:59:45.019Z,100466.36
2023-01-13T02:00:48.524Z,100468.25
2023-01-13T02:01:51.347Z,100468.94
2023-01-13T02:02:54.704Z,100468.94
2023-01-13T02:04:00.545Z,100469.87
2023-01-13T02:05:03.013Z,100472.63
2023-01-13T02:06:06.432Z,100470.09
2023-01-13T02:07:10.379Z,100468.41
2023-01-13T02:08:14.414Z,100475.17
2023-01-13T02:09:17.235Z,100470.66
2023-01-13T02:10:22.984Z,100468.11
2023-01-13T02:11:50.135Z,100468.77
2023-01-13T02:12:53.743Z,100466.28
2023-01-13T02:13:56.240Z,100472.98
2023-01-13T02:15:17.188Z,100467.21
2023-01-13T02:16:24.100Z,100470.03
2023-01-13T02:17:43.063Z,100463.41
2023-01-13T02:19:00.591Z,100472.79
2023-01-13T02:20:29.542Z,100466.55
2023-01-13T04:24:28.395Z,100434.77
2023-01-13T04:25:31.084Z,100430.16
2023-01-13T04:26:33.754Z,100432.91
2023-01-13T04:27:36.056Z,100432.91
2023-01-13T04:28:39.976Z,100435.70
2023-01-13T04:29:42.311Z,100441.88
2023-01-13T04:30:46.128Z,100434.40
2023-01-13T04:31:48.537Z,100437.13
2023-01-13T04:32:50.594Z,100432.99
2023-01-13T04:33:52.832Z,100427.23
2023-01-13T04:34:57.026Z,100427.11
2023-01-13T04:35:59.244Z,100431.39
2023-01-13T04:37:01.546Z,100434.92
2023-01-13T04:38:06.691Z,100436.46
2023-01-13T04:39:08.720Z,100441.70
2023-01-13T04:40:12.007Z,100436.62
2023-01-13T04:41:14.070Z,100439.14
2023-01-13T04:42:16.188Z,100439.94
2023-01-13T04:43:18.375Z,100438.34
2023-01-13T04:44:20.499Z,100434.97
2023-01-13T04:45:23.246Z,100446.87
2023-01-13T04:46:26.787Z,100444.20
2023-01-13T04:47:30.245Z,100443.38
2023-01-13T04:48:32.484Z,100450.25
2023-01-13T04:49:34.551Z,100446.80
2023-01-13T04:50:36.947Z,100446.05
2023-01-13T04:51:38.951Z,100447.00
2023-01-13T04:52:40.889Z,100447.20
2023-01-13T04:53:42.837Z,100443.53
2023-01-13T04:54:45.391Z,100443.53
2023-01-13T04:55:50.199Z,100447.70
2023-01-13T04:56:52.576Z,100443.43
2023-01-13T04:57:55.256Z,100446.87
2023-01-13T04:58:58.655Z,100447.72
2023-01-13T05:00:01.786Z,100442.69
2023-01-13T05:01:05.137Z,100445.48
2023-01-13T05:02:08.911Z,100439.59
2023-01-13T05:03:11.440Z,100441.29
2023-01-13T05:04:14.963Z,100439.16
2023-01-13T05:05:18.343Z,100436.77
2023-01-13T05:06:20.667Z,100436.94
2023-01-13T05:07:22.841Z,100440.19
2023-01-13T05:08:24.959Z,100440.19
2023-01-13T05:09:26.843Z,100446.03
2023-01-13T05:10:29.591Z,100442.50
2023-01-13T05:11:50.380Z,100443.51
2023-01-13T05:13:11.080Z,100448.65
2023-01-13T05:14:31.577Z,100441.13
2023-01-13T05:15:52.964Z,100449.65
2023-01-13T05:17:02.637Z,100447.13
2023-01-13T05:18:05.856Z,100448.65
2023-01-13T05:19:08.054Z,100452.30
2023-01-13T05:20:12.038Z,100451.38
2023-01-13T05:21:32.940Z,100447.25
2023-01-13T05:22:54.120Z,100445.48
2023-01-13T05:24:14.651Z,100458.14
2023-01-13T05:25:24.702Z,100459.16
2023-01-13T05:26:27.106Z,100458.14
2023-01-13T05:27:29.838Z,100459.12
2023-01-13T05:28:34.167Z,100458.09
2023-01-13T05:29:41.168Z,100458.09
2023-01-13T05:30:46.197Z,100459.76
2023-01-13T05:31:48.283Z,100458.83
2023-01-13T05:32:51.446Z,100459.69
2023-01-13T05:33:53.848Z,100458.02
2023-01-13T05:34:56.315Z,100461.20
2023-01-13T05:36:01.733Z,100460.45
2023-01-13T05:37:05.933Z,100456.80
2023-01-13T05:38:09.090Z,100458.53
2023-01-13T05:39:11.183Z,100454.13
2023-01-13T05:40:35.151Z,100448.13
2023-01-13T05:41:56.200Z,100451.72
2023-01-13T05:43:20.889Z,100456.67
2023-01-13T05:44:23.617Z,100454.20
2023-01-13T05:45:25.927Z,100456.94
2023-01-13T05:46:28.385Z,100451.77
2023-01-13T05:47:32.787Z,100456.80
2023-01-13T05:48:40.701Z,100451.50
2023-01-13T05:49:42.879Z,100452.42
2023-01-13T05:50:46.401Z,100451.45
2023-01-13T05:51:49.005Z,100453.23
2023-01-13T05:52:51.409Z,100458.40
2023-01-13T05:53:55.598Z,100453.30
2023-01-13T05:54:58.031Z,100464.31
2023-01-13T05:56:02.481Z,100467.67
2023-01-13T05:57:04.976Z,100457.63
2023-01-13T05:58:12.131Z,100459.34
2023-01-13T05:59:14.944Z,100466.98
2023-01-13T06:00:18.901Z,100463.62
2023-01-13T06:01:21.440Z,100466.17
2023-01-13T06:02:24.190Z,100466.11
2023-01-13T06:03:26.757Z,100460.97
2023-01-13T06:04:29.331Z,100462.73
2023-01-13T06:05:33.817Z,100460.86
2023-01-13T06:06:36.560Z,100460.86
2023-01-13T06:07:39.327Z,100465.18
2023-01-13T06:08:41.470Z,100466.98
2023-01-13T06:09:44.625Z,100457.55
2023-01-13T06:10:49.514Z,100466.93
2023-01-13T06:11:52.014Z,100466.03
2023-01-13T08:01:37.535Z,100480.48
2023-01-13T08:03:00.056Z,100482.91
2023-01-13T08:04:05.786Z,100483.16
2023-01-13T08:05:13.227Z,100486.96
2023-01-13T08:06:16.592Z,100480.09
2023-01-13T08:07:19.580Z,100485.31
2023-01-13T08:08:22.713Z,100492.98
2023-01-13T08:09:25.274Z,100489.61
2023-01-13T08:10:27.622Z,100503.17
2023-01-13T08:11:30.637Z,100490.48
2023-01-13T08:12:55.915Z,100487.87
2023-01-13T08:13:57.292Z,100495.85
2023-01-13T08:14:59.783Z,100497.53
2023-01-13T08:16:07.909Z,100499.30
2023-01-13T08:17:10.353Z,100503.69
2023-01-13T08:18:13.935Z,100490.94
2023-01-13T08:19:15.921Z,100490.83
2023-01-13T08:20:19.652Z,100490.20
2023-01-13T08:21:21.802Z,100492.84
2023-01-13T08:22:24.130Z,100491.74
2023-01-13T08:23:26.057Z,100490.09
2023-01-13T08:24:28.163Z,100486.58
2023-01-13T08:25:31.628Z,100488.34
2023-01-13T08:26:33.711Z,100476.34
2023-01-13T08:27:35.915Z,100474.52
2023-01-13T08:28:39.846Z,100485.55
2023-01-13T08:29:42.451Z,100478.66
2023-01-13T08:30:45.366Z,100481.72
2023-01-13T08:31:47.964Z,100466.62
2023-01-13T08:32:50.663Z,100466.62
2023-01-13T08:33:52.804Z,100467.66
2023-01-13T08:34:55.017Z,100466.09
2023-01-13T08:35:58.063Z,100465.00
2023-01-13T08:37:00.328Z,100459.07
2023-01-13T08:38:02.991Z,100457.28
2023-01-13T08:39:08.584Z,100462.55
2023-01-13T08:40:19.987Z,100451.25
2023-01-13T08:41:46.849Z,100456.86
2023-01-13T08:42:50.273Z,100455.16
2023-01-13T08:43:53.288Z,100444.72
2023-01-13T08:44:57.872Z,100460.02
2023-01-13T08:46:04.234Z,100450.63
2023-01-13T08:47:06.353Z,100451.47
2023-01-13T08:48:08.731Z,100459.14
2023-01-13T08:49:12.248Z,100464.40
2023-01-13T08:50:15.374Z,100468.67
2023-01-13T08:51:17.624Z,100461.66
2023-01-13T08:52:20.165Z,100471.13
2023-01-13T08:53:22.348Z,100475.23
2023-01-13T08:54:25.692Z,100471.82
2023-01-13T08:55:29.004Z,100472.66
2023-01-13T08:56:35.019Z,100464.81
2023-01-13T08:57:36.443Z,100464.81
2023-01-13T08:58:40.640Z,100462.28
2023-01-13T08:59:43.474Z,100466.53
2023-01-13T09:00:46.303Z,100470.75
2023-01-13T09:01:49.339Z,100463.05
2023-01-13T09:02:51.744Z,100468.19
2023-01-13T09:03:54.884Z,100468.30
2023-01-13T09:04:57.267Z,100459.79
2023-01-13T09:05:59.379Z,100462.97
2023-01-13T09:07:02.359Z,100463.84
2023-01-13T09:08:04.635Z,100462.97
2023-01-13T09:09:07.676Z,100464.62
2023-01-13T09:10:11.813Z,100459.48
2023-01-13T09:11:43.274Z,100461.91
2023-01-13T09:13:03.894Z,100457.87
2023-01-13T09:14:06.260Z,100453.08
2023-01-13T09:15:09.401Z,100458.17
2023-01-13T09:16:11.824Z,100452.89
2023-01-13T09:17:14.336Z,100456.23
2023-01-13T09:18:16.692Z,100445.20
2023-01-13T09:19:19.826Z,100450.21
2023-01-13T09:20:22.635Z,100451.64
2023-01-13T09:21:26.125Z,100449.33
2023-01-13T09:22:28.555Z,100449.54
2023-01-13T09:23:31.023Z,100448.79
2023-01-13T09:24:33.372Z,100447.91
2023-01-13T09:25:39.149Z,100452.00
2023-01-13T09:26:42.608Z,100442.81
2023-01-13T09:27:44.974Z,100448.09
2023-01-13T09:28:47.296Z,100443.92
2023-01-13T09:29:49.887Z,100444.77
2023-01-13T09:30:53.750Z,100444.83
2023-01-13T09:31:57.571Z,100443.09
2023-01-13T09:33:18.899Z,100453.98
2023-01-13T09:34:39.871Z,100457.37
2023-01-13T09:35:42.519Z,100454.04
2023-01-13T09:36:45.060Z,100449.97
2023-01-13T09:37:48.827Z,100449.75
2023-01-13T09:38:52.138Z,100442.16
2023-01-13T09:39:55.887Z,100448.88
2023-01-13T09:40:58.109Z,100443.00
2023-01-13T09:42:39.295Z,100448.83
2023-01-13T09:45:06.779Z,100437.38
2023-01-13T09:46:17.973Z,100443.22
2023-01-13T09:47:40.528Z,100439.03
2023-01-13T09:48:51.677Z,100447.56
2023-01-13T09:50:09.574Z,100441.60
2023-01-13T09:51:30.183Z,100439.95
2023-01-13T09:52:32.646Z,100446.06
2023-01-13T09:53:41.204Z,100442.81
2023-01-13T09:54:46.160Z,100436.16
2023-01-13T09:55:49.028Z,100438.67
2023-01-13T09:56:52.556Z,100424.30
2023-01-13T09:57:55.126Z,100428.20
2023-01-13T09:58:58.054Z,100428.13
2023-01-13T10:00:00.411Z,100424.66
2023-01-13T10:01:24.459Z,100426.25
2023-01-13T10:02:34.555Z,100428.02
2023-01-13T10:03:36.756Z,100426.41
2023-01-13T10:04:39.336Z,100423.91
2023-01-13T10:05:45.645Z,100430.75
2023-01-13T10:06:51.542Z,100428.96
2023-01-13T10:08:06.705Z,100430.02
2023-01-13T10:09:16.299Z,100430.02
2023-01-13T10:10:23.002Z,100438.44
2023-01-13T10:11:50.348Z,100428.28
2023-01-13T16:16:22.045Z,100384.19
2023-01-13T16:17:27.907Z,100387.41
2023-01-13T16:18:30.374Z,100395.09
2023-01-13T16:19:33.071Z,100390.84
2023-01-13T16:20:36.048Z,100389.27
2023-01-13T16:21:38.433Z,100385.21
2023-01-13T16:22:40.679Z,100385.21
2023-01-13T16:23:42.940Z,100385.31
2023-01-13T16:24:46.544Z,100381.11
2023-01-13T16:25:50.437Z,100387.86
2023-01-13T16:26:52.885Z,100377.75
2023-01-13T16:27:54.904Z,100377.65
2023-01-13T16:28:57.768Z,100378.49
2023-01-13T16:29:59.818Z,100386.14
2023-01-13T16:31:05.612Z,100381.20
2023-01-13T16:32:07.870Z,100382.23
2023-01-13T16:33:10.873Z,100378.09
2023-01-13T16:34:12.952Z,100371.41
2023-01-13T16:35:16.339Z,100376.50
2023-01-13T16:36:20.607Z,100375.73
2023-01-13T16:37:25.885Z,100377.64
2023-01-13T16:38:28.675Z,100375.19
2023-01-13T16:39:30.588Z,100381.83
2023-01-13T16:40:35.287Z,100382.59
2023-01-13T16:41:38.276Z,100372.19
2023-01-13T16:42:40.237Z,100374.05
2023-01-13T16:43:43.276Z,100377.39
2023-01-13T16:44:47.319Z,100379.27
2023-01-13T16:45:49.885Z,100381.84
2023-01-13T16:46:52.762Z,100376.67
2023-01-13T16:47:55.289Z,100377.55
2023-01-13T16:49:01.070Z,100378.47
2023-01-13T16:50:03.652Z,100370.82
2023-01-13T16:51:06.193Z,100368.95
2023-01-13T16:52:10.403Z,100372.14
2023-01-13T16:53:13.054Z,100373.13
2023-01-13T16:54:16.136Z,100370.58
2023-01-13T16:55:18.288Z,100367.93
2023-01-13T16:56:28.931Z,100366.27
2023-01-13T16:57:30.966Z,100371.39
2023-01-13T16:58:33.560Z,100370.55
2023-01-13T16:59:37.777Z,100373.95
2023-01-13T17:00:42.381Z,100369.72
2023-01-13T17:01:45.986Z,100367.29
2023-01-13T17:02:48.680Z,100367.37
2023-01-13T17:03:51.803Z,100371.73
2023-01-13T17:04:54.197Z,100373.36
2023-01-13T17:05:56.771Z,100373.52
2023-01-13T17:07:02.639Z,100372.57
2023-01-13T17:08:06.075Z,100370.97
2023-01-13T17:09:11.995Z,100368.26
2023-01-13T17:10:17.549Z,100373.36
2023-01-13T17:11:20.334Z,100367.44
2023-01-13T17:12:22.645Z,100366.45
2023-01-13T17:13:24.879Z,100369.84
2023-01-13T17:14:28.198Z,100364.06
2023-01-13T17:15:30.826Z,100374.35
2023-01-13T17:16:34.897Z,100373.69
2023-01-13T17:17:37.481Z,100375.27
2023-01-13T17:18:40.027Z,100367.67
2023-01-13T17:19:42.261Z,100377.97
2023-01-13T17:20:45.543Z,100360.85
2023-01-13T17:21:50.416Z,100376.73
2023-01-13T17:22:58.221Z,100370.72
2023-01-13T17:23:57.199Z,100369.07
2023-01-13T17:24:59.906Z,100374.09
2023-01-13T17:26:02.196Z,100369.75
2023-01-13T17:27:04.354Z,100372.45
2023-01-13T17:28:06.958Z,100371.47
2023-01-13T17:29:19.148Z,100368.11
2023-01-13T17:30:21.818Z,100367.27
2023-01-13T17:31:23.844Z,100369.02
2023-01-13T17:32:26.141Z,100374.05
2023-01-13T17:33:30.055Z,100372.36
2023-01-13T17:34:32.201Z,100368.16
2023-01-13T17:35:34.321Z,100364.80
2023-01-13T17:36:36.592Z,100375.83
2023-01-13T17:37:39.699Z,100371.73
2023-01-13T17:38:43.286Z,100370.88
2023-01-13T17:39:47.926Z,100374.35
2023-01-13T17:40:50.912Z,100376.67
2023-01-13T17:41:55.343Z,100374.20
2023-01-13T17:42:57.749Z,100375.92
2023-01-13T17:44:00.971Z,100380.12
2023-01-13T17:45:03.807Z,100379.12
2023-01-13T17:46:12.096Z,100384.03
2023-01-13T17:47:14.816Z,100380.60
2023-01-13T17:48:18.249Z,100380.65
2023-01-13T17:49:21.861Z,100377.37
2023-01-13T17:50:27.223Z,100378.93
2023-01-13T17:51:29.674Z,100384.06
2023-01-13T17:52:34.530Z,100383.98
2023-01-13T17:53:39.499Z,100374.55
2023-01-13T17:54:43.192Z,100378.93
2023-01-13T18:06:18.334Z,100367.54
2023-01-13T18:07:20.842Z,100373.19
2023-01-13T22:02:00.356Z,100363.48
2023-01-13T22:03:04.347Z,100351.44
2023-01-13T22:04:12.364Z,100364.23
2023-01-13T22:05:17.096Z,100358.27
2023-01-13T22:06:19.626Z,100361.85
2023-01-13T22:07:21.623Z,100363.63
2023-01-13T22:08:25.061Z,100361.85
2023-01-13T22:09:29.773Z,100356.88
2023-01-13T22:10:32.218Z,100362.82
2023-01-13T22:11:35.350Z,100362.96
2023-01-13T22:12:38.897Z,100368.88
2023-01-13T22:13:59.680Z,100366.33
2023-01-13T22:15:02.721Z,100360.34
2023-01-13T22:16:05.797Z,100359.72
2023-01-13T22:17:07.798Z,100355.54
2023-01-13T22:18:09.982Z,100359.89
2023-01-13T22:19:12.096Z,100358.17
2023-01-13T22:20:19.400Z,100366.64
2023-01-13T22:21:19.553Z,100366.75
2023-01-13T22:22:21.937Z,100358.20
2023-01-13T22:23:23.934Z,100360.02
2023-01-13T22:24:26.062Z,100354.06
2023-01-13T22:25:28.145Z,100362.44
2023-01-13T22:26:31.764Z,100366.44
2023-01-13T22:27:37.995Z,100377.48
2023-01-13T22:28:42.619Z,100365.63
2023-01-13T22:29:46.733Z,100367.35
2023-01-13T22:30:51.552Z,100373.26
2023-01-13T22:31:54.210Z,100369.08
2023-01-13T22:32:57.320Z,100368.98
2023-01-13T22:33:59.467Z,100362.23
2023-01-13T22:35:02.329Z,100359.63
2023-01-13T22:36:05.859Z,100367.38
2023-01-13T22:37:08.497Z,100356.28
2023-01-13T22:38:12.411Z,100354.70
2023-01-13T22:39:14.413Z,100351.08
2023-01-13T22:40:17.235Z,100360.52
2023-01-13T22:41:20.061Z,100358.07
2023-01-13T22:42:21.976Z,100349.70
2023-01-13T22:43:24.716Z,100347.42
2023-01-13T22:44:26.922Z,100347.42
2023-01-13T22:45:29.064Z,100358.37
2023-01-13T22:46:30.998Z,100356.08
2023-01-13T22:47:33.808Z,100356.08
2023-01-13T22:48:36.969Z,100353.55
2023-01-13T22:49:41.189Z,100344.17
2023-01-13T22:50:43.770Z,100342.33
2023-01-13T22:51:46.080Z,100349.80
2023-01-13T22:52:48.119Z,100347.36
2023-01-13T22:53:50.652Z,100350.91
2023-01-13T22:54:52.593Z,100348.45
2023-01-13T22:55:58.935Z,100349.23
2023-01-13T22:57:01.119Z,100349.23
2023-01-13T22:58:03.131Z,100355.09
2023-01-13T22:59:09.009Z,100346.52
2023-01-13T23:00:13.950Z,100346.69
2023-01-13T23:01:17.398Z,100343.33
2023-01-13T23:02:19.757Z,100350.08
2023-01-13T23:03:23.874Z,100345.64
2023-01-13T23:04:26.180Z,100344.80
2023-01-13T23:05:28.503Z,100339.63
2023-01-13T23:06:33.008Z,100344.63
2023-01-13T23:07:35.600Z,100341.25
2023-01-13T23:08:37.689Z,100346.32
2023-01-13T23:09:39.744Z,100338.70
2023-01-13T23:10:42.084Z,100348.97
2023-01-13T23:11:47.709Z,100341.35
2023-01-13T23:12:51.609Z,100335.42
2023-01-13T23:13:59.156Z,100335.48
2023-01-13T23:15:01.233Z,100325.29
2023-01-13T23:16:08.941Z,100327.94
2023-01-13T23:17:11.161Z,100325.46
2023-01-13T23:18:13.272Z,100328.75
2023-01-13T23:19:15.484Z,100330.34
2023-01-13T23:20:18.741Z,100315.14
2023-01-13T23:21:25.465Z,100309.34
2023-01-13T23:22:27.538Z,100310.27
2023-01-13T23:23:29.960Z,100312.75
2023-01-13T23:24:32.143Z,100317.86
2023-01-13T23:25:34.381Z,100320.39
2023-01-13T23:26:36.988Z,100313.57
2023-01-13T23:27:39.218Z,100327.23
2023-01-13T23:28:42.408Z,100326.48
2023-01-13T23:29:45.076Z,100335.17
2023-01-13T23:30:47.847Z,100325.66
2023-01-13T23:31:49.831Z,100324.73
2023-01-13T23:32:51.769Z,100323.02
2023-01-13T23:33:53.695Z,100313.64
2023-01-13T23:34:56.346Z,100316.02
2023-01-13T23:36:01.216Z,100316.02
2023-01-13T23:37:03.574Z,100327.94
2023-01-13T23:38:05.858Z,100331.25
2023-01-13T23:39:08.537Z,100313.38
2023-01-13T23:40:13.008Z,100318.59
2023-01-13T23:41:18.636Z,100326.24
2023-01-13T23:42:20.734Z,100321.27
2023-01-13T23:43:25.527Z,100317.73
2023-01-13T23:44:28.769Z,100323.59
2023-01-13T23:45:31.988Z,100326.21
2023-01-13T23:46:35.164Z,100324.40
2023-01-13T23:47:37.299Z,100326.95
2023-01-13T23:48:39.554Z,100327.78
2023-01-13T23:49:41.485Z,100324.49
2023-01-13T23:50:44.720Z,100312.66
2023-01-13T23:51:51.840Z,100316.02
2023-01-13T23:52:53.976Z,100315.03
2023-01-13T23:53:56.243Z,100322.74
2023-01-13T23:54:58.704Z,100322.78
2023-01-13T23:56:02.227Z,100326.39
2023-01-13T23:57:04.462Z,100313.47
2023-01-13T23:58:06.303Z,100316.02
2023-01-13T23:59:08.838Z,100316.75
